Create Tblcommutelog Verified Points Advance Search
| # | Trip ID | Id Commuter | Trip Date | Trip Num | Current Lat | Current Lng | Delta Distance | Current Time | Activity | Activity Confidence | Current Speed | |
|---|---|---|---|---|---|---|---|---|---|---|---|---|
| 69941 | 260123_783292_16651014_1601 | 783292 | (not set) | (not set) | 38.897596253343 | -77.028376410288 | 11.2343 | 2026-01-23 17:05:13 | in_vehicle | 100 | -0.44703925898772 | |
| 69942 | 260123_791179_16660299_1537 | 791179 | (not set) | (not set) | 38.52736105 | -77.411881466667 | 46.592 | 2026-01-23 17:04:55 | in_vehicle | 100 | 0 | |
| 69943 | 260123_785403_16653539_1705 | 785403 | (not set) | (not set) | 38.923954 | -77.0406044 | 0 | 2026-01-23 17:05:16 | in_vehicle | 100 | 0 | |
| 69944 | 260123_785403_16653539_1705 | 785403 | (not set) | (not set) | 38.923954 | -77.0406044 | 0 | 2026-01-23 17:05:16 | in_vehicle | 100 | 0 | |
| 69945 | 260123_784811_16652840_1705 | 784811 | (not set) | (not set) | 38.89976947572 | -77.043457087201 | 0 | 2026-01-23 17:05:16 | unknown | 100 | 0.08046706661779 | |
| 69946 | 260123_789714_6455647_1705 | 789714 | (not set) | (not set) | 38.978394313727 | -76.938204736314 | 0 | 2026-01-23 17:05:16 | on_foot | 100 | -0.44703925898772 | |
| 69947 | 260123_789714_6455647_1705 | 789714 | (not set) | (not set) | 38.978394313727 | -76.938204736314 | 0 | 2026-01-23 17:05:16 | on_foot | 100 | -0.44703925898772 | |
| 69948 | 260123_789714_6455647_1705 | 789714 | (not set) | (not set) | 38.978394313727 | -76.938204736314 | 0 | 2026-01-23 17:05:16 | on_foot | 100 | -0.44703925898772 | |
| 69949 | 260123_784811_16652840_1705 | 784811 | (not set) | (not set) | 38.89976947572 | -77.043457087201 | 0 | 2026-01-23 17:05:16 | unknown | 100 | 0.08046706661779 | |
| 69950 | 260123_791179_16660299_1537 | 791179 | (not set) | (not set) | 38.52736105 | -77.411881466667 | 46.592 | 2026-01-23 17:04:55 | in_vehicle | 100 | 0 | |
| 69951 | 260123_787575_16656058_1652 | 787575 | (not set) | (not set) | 38.896101266423 | -76.839453086306 | 2.0037 | 2026-01-23 17:05:17 | in_vehicle | 100 | 4.224520997434 | |
| 69952 | 260123_788077_16656633_1601 | 788077 | (not set) | (not set) | 38.821346402527 | -77.463947026778 | 39.5966 | 2026-01-23 17:05:17 | in_vehicle | 100 | 4.6536786860622 | |
| 69953 | 260123_785147_16653236_1653 | 785147 | (not set) | (not set) | 39.069622416667 | -77.477253016667 | 7.914 | 2026-01-23 17:05:17 | still | 33 | 11.198333437642 | |
| 69954 | 260123_785147_16653236_1653 | 785147 | (not set) | (not set) | 39.069622416667 | -77.477253016667 | 7.914 | 2026-01-23 17:05:17 | still | 33 | 11.198333437642 | |
| 69955 | 260123_790094_16659070_1534 | 790094 | (not set) | (not set) | 39.214133935423 | -77.239061554963 | 30.96 | 2026-01-23 17:05:18 | in_vehicle | 100 | 7.4074405214266 | |
| 69956 | 260123_772259_16639517_1658 | 772259 | (not set) | (not set) | 38.9530359 | -77.036353 | 1.6895 | 2026-01-23 17:05:20 | in_vehicle | 100 | 4.9442542044042 | |
| 69957 | 260123_772509_16659352_1637 | 772509 | (not set) | (not set) | 38.873952166667 | -76.971883833333 | 7.8779 | 2026-01-23 17:05:20 | in_vehicle | 100 | 4.4390998417481 | |
| 69958 | 260123_785674_6441454_1604 | 785674 | (not set) | (not set) | 39.448678273569 | -77.41175562096 | 35.3848 | 2026-01-23 17:05:21 | in_vehicle | 100 | 2.9191663611898 | |
| 69959 | 260123_779681_16647369_1627 | 779681 | (not set) | (not set) | 39.021211650479 | -76.761799104855 | 17.2877 | 2026-01-23 17:05:21 | still | 33 | 7.9885915581106 | |
| 69960 | 260123_779681_16647369_1627 | 779681 | (not set) | (not set) | 39.021211650479 | -76.761799104855 | 17.2877 | 2026-01-23 17:05:21 | still | 33 | 7.9885915581106 |